createdAt,value
2019-05-03T00:00:18.773Z,60.45
2019-05-03T00:02:52.231Z,60.42
2019-05-03T00:05:04.355Z,60.62
2019-05-03T00:07:08.323Z,60.44
2019-05-03T00:09:14.388Z,60.38
2019-05-03T00:11:22.090Z,60.23
2019-05-03T00:13:26.107Z,60.55
2019-05-03T00:15:48.938Z,60.67
2019-05-03T00:17:52.766Z,60.65
2019-05-03T00:19:56.587Z,60.71
2019-05-03T00:22:02.144Z,60.92
2019-05-03T00:24:06.990Z,61.09
2019-05-03T00:26:11.998Z,61.15
2019-05-03T00:28:15.895Z,61.45
2019-05-03T00:30:19.792Z,61.57
2019-05-03T00:32:25.695Z,61.58
2019-05-03T00:34:34.494Z,61.65
2019-05-03T00:36:52.487Z,62.01
2019-05-03T00:39:01.938Z,61.97
2019-05-03T00:41:05.908Z,62.12
2019-05-03T00:43:11.598Z,62.21
2019-05-03T00:45:16.617Z,62.36
2019-05-03T00:47:22.155Z,62.31
2019-05-03T00:49:27.021Z,62.44
2019-05-03T00:51:31.789Z,62.37
2019-05-03T00:53:35.560Z,62.42
2019-05-03T00:55:42.010Z,62.30
2019-05-03T00:57:45.782Z,62.06
2019-05-03T00:59:49.637Z,61.93
2019-05-03T01:01:53.425Z,61.74
2019-05-03T01:03:57.257Z,61.44
2019-05-03T01:06:02.322Z,61.59
2019-05-03T01:08:06.245Z,61.51
2019-05-03T01:10:11.839Z,61.49
2019-05-03T01:12:15.717Z,61.75
2019-05-03T01:14:19.592Z,61.87
2019-05-03T01:16:25.956Z,62.06
2019-05-03T01:18:29.793Z,62.21
2019-05-03T01:20:33.677Z,62.14
2019-05-03T01:22:37.504Z,62.36
2019-05-03T01:24:42.776Z,62.43
2019-05-03T01:26:47.642Z,62.67
2019-05-03T01:28:52.120Z,62.74
2019-05-03T01:30:56.257Z,63.07
2019-05-03T01:33:00.101Z,63.35
2019-05-03T01:35:05.634Z,63.61
2019-05-03T01:37:09.456Z,63.56
2019-05-03T01:39:13.240Z,63.58
2019-05-03T01:41:17.052Z,63.53
2019-05-03T01:43:22.212Z,63.71
2019-05-03T01:45:26.140Z,63.71
2019-05-03T01:47:37.685Z,63.72
2019-05-03T01:49:49.093Z,63.60
2019-05-03T01:52:12.813Z,63.59
2019-05-03T01:54:16.623Z,63.76
2019-05-03T01:56:22.260Z,63.74
2019-05-03T01:58:26.226Z,63.75
2019-05-03T02:00:31.883Z,63.82
2019-05-03T02:02:52.468Z,63.84
2019-05-03T02:05:15.449Z,63.83
2019-05-03T02:07:19.321Z,63.75
2019-05-03T02:09:23.102Z,63.86
2019-05-03T02:11:26.908Z,63.83
2019-05-03T02:13:32.129Z,64.09
2019-05-03T02:15:37.054Z,64.17
2019-05-03T02:17:42.649Z,64.22
2019-05-03T02:19:46.510Z,64.31
2019-05-03T02:21:52.215Z,64.63
2019-05-03T02:23:55.936Z,64.68
2019-05-03T02:25:59.831Z,64.72
2019-05-03T02:28:03.736Z,64.89
2019-05-03T02:30:08.044Z,64.88
2019-05-03T02:32:13.321Z,64.89
2019-05-03T02:34:17.227Z,64.81
2019-05-03T02:36:23.310Z,64.72
2019-05-03T02:38:27.707Z,64.93
2019-05-03T02:40:33.821Z,64.80
2019-05-03T02:42:37.158Z,64.75
2019-05-03T02:44:41.213Z,64.70
2019-05-03T02:46:56.876Z,64.58
2019-05-03T02:49:26.033Z,64.55
2019-05-03T02:51:29.850Z,64.52
2019-05-03T02:53:35.875Z,64.63
2019-05-03T02:55:41.235Z,64.62
2019-05-03T02:57:46.697Z,64.70
2019-05-03T02:59:50.659Z,64.81
2019-05-03T03:01:55.910Z,64.83
2019-05-03T03:03:59.896Z,64.85
2019-05-03T03:06:06.737Z,64.86
2019-05-03T03:08:11.399Z,64.99
2019-05-03T03:10:17.490Z,64.93
2019-05-03T03:12:25.795Z,65.02
2019-05-03T03:14:32.946Z,65.12
2019-05-03T03:16:37.457Z,65.15
2019-05-03T03:18:41.651Z,65.24
2019-05-03T03:20:49.479Z,65.19
2019-05-03T03:22:56.350Z,65.06
2019-05-03T03:25:01.620Z,65.00
2019-05-03T03:27:08.152Z,64.95
2019-05-03T03:29:16.028Z,65.02
2019-05-03T03:31:28.925Z,64.96
2019-05-03T03:33:32.639Z,64.94
2019-05-03T03:35:39.794Z,65.11
2019-05-03T03:37:46.163Z,65.01
2019-05-03T03:39:50.592Z,64.95
2019-05-03T03:41:56.059Z,64.85
2019-05-03T03:44:02.886Z,64.86
2019-05-03T03:46:10.276Z,64.90
2019-05-03T03:48:15.964Z,64.94
2019-05-03T03:50:19.718Z,64.96
2019-05-03T03:52:27.477Z,64.99
2019-05-03T03:54:35.490Z,65.07
2019-05-03T03:56:58.399Z,65.18
2019-05-03T03:58:48.377Z,65.05
2019-05-03T04:00:52.274Z,64.96
2019-05-03T04:02:56.194Z,64.91
2019-05-03T04:05:00.087Z,64.86
2019-05-03T04:07:06.247Z,64.86
2019-05-03T04:09:11.729Z,64.85
2019-05-03T04:11:15.804Z,64.89
2019-05-03T04:13:21.501Z,64.79
2019-05-03T04:15:56.628Z,64.88
2019-05-03T04:18:19.034Z,64.86
2019-05-03T04:20:25.711Z,64.95
2019-05-03T04:22:30.587Z,64.90
2019-05-03T04:24:35.348Z,64.90
2019-05-03T04:26:40.802Z,64.85
2019-05-03T04:28:45.370Z,64.88
2019-05-03T04:30:49.281Z,64.84
2019-05-03T04:32:56.191Z,64.87
2019-05-03T04:34:58.620Z,64.94
2019-05-03T04:37:05.188Z,64.87
2019-05-03T04:39:08.072Z,64.79
2019-05-03T04:41:11.958Z,64.91
2019-05-03T04:43:16.562Z,64.91
2019-05-03T04:45:20.415Z,64.99
2019-05-03T04:47:26.456Z,64.95
2019-05-03T04:49:31.501Z,65.01
2019-05-03T04:51:35.364Z,64.93
2019-05-03T04:53:41.796Z,64.85
2019-05-03T04:55:46.828Z,64.89
2019-05-03T04:57:50.779Z,64.94
2019-05-03T04:59:56.048Z,64.96
2019-05-03T05:01:59.941Z,64.93
2019-05-03T05:04:05.319Z,64.95
2019-05-03T05:06:09.388Z,64.90
2019-05-03T05:08:13.200Z,64.90
2019-05-03T05:10:17.084Z,64.89
2019-05-03T05:12:20.918Z,64.84
2019-05-03T05:14:25.830Z,64.92
2019-05-03T05:16:29.840Z,64.84
2019-05-03T05:18:41.555Z,64.80
2019-05-03T05:20:52.994Z,64.90
2019-05-03T05:22:56.901Z,64.84
2019-05-03T05:25:04.366Z,64.83
2019-05-03T05:27:19.752Z,64.81
2019-05-03T05:29:25.629Z,64.88
2019-05-03T05:31:30.461Z,64.86
2019-05-03T05:33:35.352Z,64.97
2019-05-03T05:35:39.204Z,65.22
2019-05-03T05:37:44.419Z,65.25
2019-05-03T05:39:48.239Z,65.14
2019-05-03T05:41:52.050Z,65.20
2019-05-03T05:43:55.833Z,65.37
2019-05-03T05:45:59.658Z,65.23
2019-05-03T05:48:07.898Z,65.13
2019-05-03T05:50:27.871Z,65.17
2019-05-03T05:52:31.628Z,65.26
2019-05-03T05:54:37.365Z,65.27
2019-05-03T05:56:58.156Z,65.27
2019-05-03T05:59:05.944Z,65.18
2019-05-03T06:01:20.155Z,65.10
2019-05-03T06:03:25.237Z,64.99
2019-05-03T06:05:29.087Z,64.16
2019-05-03T06:07:44.338Z,63.71
2019-05-03T06:09:58.687Z,63.51
2019-05-03T06:12:09.623Z,62.95
2019-05-03T06:14:20.090Z,62.57
2019-05-03T06:16:41.499Z,62.29
2019-05-03T06:19:07.494Z,62.35
2019-05-03T06:21:19.066Z,62.49
2019-05-03T06:23:34.756Z,62.54
2019-05-03T06:25:40.880Z,62.47
2019-05-03T06:27:44.954Z,62.32
2019-05-03T06:29:49.768Z,62.22
2019-05-03T06:32:05.386Z,62.29
2019-05-03T06:34:09.294Z,62.09
2019-05-03T06:36:15.118Z,62.08
2019-05-03T06:38:18.730Z,62.12
2019-05-03T06:40:22.618Z,61.92
2019-05-03T06:42:26.478Z,62.01
2019-05-03T06:44:30.358Z,62.00
2019-05-03T06:46:45.631Z,62.01
2019-05-03T06:48:50.694Z,61.79
2019-05-03T06:50:55.786Z,61.70
2019-05-03T06:53:04.339Z,61.53
2019-05-03T06:55:10.505Z,61.48
2019-05-03T06:57:14.803Z,61.43
2019-05-03T06:59:26.939Z,61.37
2019-05-03T07:01:37.847Z,61.15
2019-05-03T07:04:05.090Z,61.08
2019-05-03T07:06:34.481Z,61.06
2019-05-03T07:08:49.651Z,61.07
2019-05-03T07:10:57.148Z,61.12
2019-05-03T07:13:02.262Z,61.05
2019-05-03T07:15:06.080Z,61.06
2019-05-03T07:17:09.965Z,61.00
2019-05-03T07:19:14.725Z,61.00
2019-05-03T07:21:18.518Z,61.24
2019-05-03T07:23:24.351Z,61.13
2019-05-03T07:25:27.862Z,60.79
2019-05-03T07:27:31.731Z,60.48
2019-05-03T07:29:36.607Z,60.52
2019-05-03T07:31:40.413Z,60.29
2019-05-03T07:33:44.676Z,60.26
2019-05-03T07:35:48.410Z,60.15
2019-05-03T07:37:52.235Z,60.02
2019-05-03T07:39:56.252Z,59.77
2019-05-03T07:42:00.029Z,59.75
2019-05-03T07:44:05.375Z,59.67
2019-05-03T07:46:09.169Z,59.50
2019-05-03T07:48:14.917Z,59.54
2019-05-03T07:50:18.691Z,59.17
2019-05-03T07:52:22.433Z,58.77
2019-05-03T07:54:26.156Z,58.70
2019-05-03T07:56:35.578Z,58.64
2019-05-03T07:58:40.621Z,58.44
2019-05-03T08:00:44.747Z,58.51
2019-05-03T08:02:48.505Z,58.38
2019-05-03T08:04:52.330Z,58.00
2019-05-03T08:06:56.168Z,57.47
2019-05-03T08:09:00.218Z,57.73
2019-05-03T08:11:05.324Z,57.85
2019-05-03T08:13:09.176Z,56.72
2019-05-03T08:15:15.592Z,56.52
2019-05-03T08:17:18.860Z,56.31
2019-05-03T08:19:24.476Z,56.12
2019-05-03T08:21:28.167Z,56.20
2019-05-03T08:23:31.963Z,55.93
2019-05-03T08:25:36.860Z,56.04
2019-05-03T08:27:40.588Z,55.78
2019-05-03T08:29:45.403Z,55.20
2019-05-03T08:31:59.825Z,54.58
2019-05-03T08:34:35.053Z,54.17
2019-05-03T08:36:59.182Z,53.11
2019-05-03T08:39:05.360Z,52.72
2019-05-03T08:41:10.394Z,52.12
2019-05-03T08:43:15.547Z,51.47
2019-05-03T08:45:19.420Z,51.33
2019-05-03T08:47:24.746Z,49.71
2019-05-03T08:49:28.745Z,48.92
2019-05-03T08:51:32.462Z,48.84
2019-05-03T08:53:36.333Z,49.16
2019-05-03T08:55:40.112Z,48.82
2019-05-03T08:57:44.791Z,48.92
2019-05-03T08:59:48.585Z,48.92
2019-05-03T09:01:52.402Z,48.92
2019-05-03T09:03:56.261Z,48.92
2019-05-03T09:06:00.032Z,48.96
2019-05-03T09:08:05.679Z,48.21
2019-05-03T09:10:18.699Z,47.01
2019-05-03T09:12:22.408Z,46.71
2019-05-03T09:14:38.750Z,47.05
2019-05-03T09:16:31.739Z,46.67
2019-05-03T09:18:35.460Z,46.23
2019-05-03T09:20:39.256Z,46.67
2019-05-03T09:22:45.210Z,47.07
2019-05-03T09:24:48.572Z,47.06
2019-05-03T09:26:52.498Z,46.98
2019-05-03T09:28:56.299Z,46.18
2019-05-03T09:31:00.027Z,45.80
2019-05-03T09:33:06.000Z,45.98
2019-05-03T09:35:28.987Z,46.37
2019-05-03T09:37:19.400Z,46.36
2019-05-03T09:39:24.524Z,46.57
2019-05-03T09:41:28.470Z,46.81
2019-05-03T09:43:32.252Z,46.79
2019-05-03T09:45:37.073Z,46.82
2019-05-03T09:47:41.013Z,47.12
2019-05-03T09:49:45.363Z,46.85
2019-05-03T09:51:49.263Z,45.19
2019-05-03T09:53:57.694Z,44.88
2019-05-03T09:56:01.518Z,45.24
2019-05-03T09:58:05.687Z,45.60
2019-05-03T10:00:11.387Z,45.24
2019-05-03T10:02:15.266Z,45.27
2019-05-03T10:04:19.108Z,44.98
2019-05-03T10:06:25.033Z,45.18
2019-05-03T10:08:28.310Z,44.75
2019-05-03T10:10:51.155Z,44.20
2019-05-03T10:12:55.146Z,43.83
2019-05-03T10:14:58.867Z,42.50
2019-05-03T10:17:27.798Z,42.64
2019-05-03T10:19:37.698Z,42.72
2019-05-03T10:21:39.286Z,43.08
2019-05-03T10:23:44.922Z,42.47
2019-05-03T10:25:48.574Z,42.54
2019-05-03T10:27:52.481Z,42.83
2019-05-03T10:30:09.660Z,42.85
2019-05-03T10:32:15.147Z,42.79
2019-05-03T10:34:19.020Z,43.22
2019-05-03T10:36:24.762Z,43.35
2019-05-03T10:38:28.316Z,42.77
2019-05-03T10:40:33.035Z,42.59
2019-05-03T10:42:36.926Z,42.25
2019-05-03T10:44:40.739Z,41.98
2019-05-03T10:46:45.268Z,42.11
2019-05-03T10:48:49.085Z,41.97
2019-05-03T10:50:52.870Z,41.24
2019-05-03T10:53:24.562Z,41.29
2019-05-03T10:55:30.292Z,41.63
2019-05-03T10:57:36.427Z,41.64
2019-05-03T10:59:40.319Z,41.88
2019-05-03T11:02:06.296Z,42.24
2019-05-03T11:04:11.109Z,42.01
2019-05-03T11:06:14.924Z,42.04
2019-05-03T11:08:18.720Z,42.12
2019-05-03T11:10:25.169Z,41.93
2019-05-03T11:12:29.199Z,41.85
2019-05-03T11:14:35.000Z,42.25
2019-05-03T11:16:38.875Z,41.96
2019-05-03T11:18:42.612Z,42.13
2019-05-03T11:20:46.441Z,42.18
2019-05-03T11:22:50.246Z,41.91
2019-05-03T11:24:54.685Z,41.71
2019-05-03T11:27:00.453Z,41.34
2019-05-03T11:29:05.185Z,41.41
2019-05-03T11:31:26.511Z,41.38
2019-05-03T11:33:35.495Z,41.53
2019-05-03T11:35:46.321Z,41.47
2019-05-03T11:37:53.991Z,41.56
2019-05-03T11:39:57.843Z,41.22
2019-05-03T11:42:01.686Z,41.73
2019-05-03T11:44:24.585Z,41.83
2019-05-03T11:46:28.391Z,41.89
2019-05-03T11:48:32.209Z,41.39
2019-05-03T11:50:35.931Z,41.37
2019-05-03T11:52:39.722Z,40.65
2019-05-03T11:54:45.256Z,41.11
2019-05-03T11:56:49.238Z,41.26
2019-05-03T11:58:54.859Z,41.31
2019-05-03T12:01:14.905Z,41.40
2019-05-03T12:03:35.379Z,41.47
2019-05-03T12:05:38.887Z,41.15
2019-05-03T12:07:45.544Z,41.00
2019-05-03T12:09:49.362Z,40.96
2019-05-03T12:11:55.345Z,41.23
2019-05-03T12:14:11.626Z,41.30
2019-05-03T12:16:21.785Z,41.44
2019-05-03T12:18:21.475Z,40.84
2019-05-03T12:20:28.505Z,41.05
2019-05-03T12:22:31.504Z,41.00
2019-05-03T12:24:37.046Z,41.09
2019-05-03T12:26:44.653Z,40.74
2019-05-03T12:28:46.725Z,40.69
2019-05-03T12:30:51.548Z,40.70
2019-05-03T12:32:55.342Z,40.89
2019-05-03T12:34:59.214Z,41.16
2019-05-03T12:37:05.169Z,41.42
2019-05-03T12:39:23.226Z,41.61
2019-05-03T12:41:15.686Z,41.67
2019-05-03T12:43:19.483Z,41.85
2019-05-03T12:45:24.781Z,42.00
2019-05-03T12:47:28.702Z,42.20
2019-05-03T12:49:32.498Z,42.16
2019-05-03T12:51:36.239Z,42.07
2019-05-03T12:53:39.980Z,42.22
2019-05-03T12:55:43.775Z,42.61
2019-05-03T12:57:47.500Z,42.57
2019-05-03T12:59:57.717Z,42.60
2019-05-03T13:02:24.755Z,42.68
2019-05-03T13:04:31.274Z,42.74
2019-05-03T13:06:37.855Z,42.93
2019-05-03T13:08:45.394Z,43.21
2019-05-03T13:10:49.898Z,43.64
2019-05-03T13:12:55.861Z,43.67
2019-05-03T13:14:59.306Z,43.35
2019-05-03T13:17:04.743Z,43.57
2019-05-03T13:19:08.581Z,43.35
2019-05-03T13:21:12.434Z,43.28
2019-05-03T13:23:16.187Z,43.20
2019-05-03T13:25:20.157Z,43.20
2019-05-03T13:27:25.300Z,43.26
2019-05-03T13:29:29.155Z,43.31
2019-05-03T13:31:34.703Z,43.17
2019-05-03T13:33:38.492Z,43.13
2019-05-03T13:35:44.451Z,42.68
2019-05-03T13:37:47.963Z,42.49
2019-05-03T13:39:51.742Z,42.49
2019-05-03T13:41:55.614Z,42.59
2019-05-03T13:43:59.436Z,42.93
2019-05-03T13:46:05.112Z,42.99
2019-05-03T13:48:08.710Z,43.07
2019-05-03T13:50:15.128Z,42.84
2019-05-03T13:52:19.963Z,42.96
2019-05-03T13:54:25.517Z,42.88
2019-05-03T13:56:29.458Z,43.01
2019-05-03T13:58:35.576Z,42.72
2019-05-03T14:00:38.768Z,42.73
2019-05-03T14:02:44.780Z,42.89
2019-05-03T14:04:52.526Z,42.81
2019-05-03T14:06:55.281Z,42.90
2019-05-03T14:08:59.014Z,43.07
2019-05-03T14:11:04.835Z,43.29
2019-05-03T14:13:08.337Z,43.35
2019-05-03T14:15:12.326Z,43.76
2019-05-03T14:17:16.091Z,44.22
2019-05-03T14:19:27.009Z,44.64
2019-05-03T14:21:39.434Z,44.93
2019-05-03T14:24:00.682Z,45.46
2019-05-03T14:26:04.622Z,45.83
2019-05-03T14:28:08.502Z,46.15
2019-05-03T14:30:14.601Z,46.21
2019-05-03T14:32:25.771Z,46.30
2019-05-03T14:34:25.747Z,46.34
2019-05-03T14:36:29.571Z,46.26
2019-05-03T14:38:33.294Z,46.30
2019-05-03T14:40:37.019Z,46.56
2019-05-03T14:42:40.806Z,46.58
2019-05-03T14:44:45.530Z,46.59
2019-05-03T14:46:49.398Z,46.72
2019-05-03T14:48:54.950Z,46.87
2019-05-03T14:50:59.746Z,46.56
2019-05-03T14:53:05.468Z,46.32
2019-05-03T14:55:15.478Z,46.32
2019-05-03T14:57:31.953Z,46.37
2019-05-03T15:00:16.985Z,46.52
2019-05-03T15:02:40.228Z,46.66
2019-05-03T15:04:34.918Z,46.57
2019-05-03T15:06:38.205Z,46.59
2019-05-03T15:08:42.012Z,46.52
2019-05-03T15:10:45.851Z,46.53
2019-05-03T15:12:49.605Z,46.60
2019-05-03T15:14:54.589Z,46.66
2019-05-03T15:17:00.399Z,46.73
2019-05-03T15:19:05.429Z,46.58
2019-05-03T15:21:09.343Z,46.55
2019-05-03T15:23:14.691Z,46.48
2019-05-03T15:25:18.655Z,46.46
2019-05-03T15:27:24.622Z,46.26
2019-05-03T15:29:27.888Z,46.14
2019-05-03T15:31:31.641Z,46.16
2019-05-03T15:33:35.546Z,46.31
2019-05-03T15:35:39.351Z,46.10
2019-05-03T15:37:45.100Z,46.26
2019-05-03T15:39:48.583Z,46.24
2019-05-03T15:41:54.332Z,46.24
2019-05-03T15:44:19.761Z,46.27
2019-05-03T15:46:45.506Z,46.28
2019-05-03T15:48:52.168Z,46.40
2019-05-03T15:50:57.984Z,46.46
2019-05-03T15:53:01.727Z,46.21
2019-05-03T15:55:06.124Z,46.03
2019-05-03T15:57:09.921Z,46.07
2019-05-03T15:59:15.008Z,46.06
2019-05-03T16:01:18.845Z,45.84
2019-05-03T16:03:22.632Z,45.81
2019-05-03T16:05:26.349Z,45.58
2019-05-03T16:07:30.154Z,45.52
2019-05-03T16:09:35.239Z,45.51
2019-05-03T16:11:38.918Z,45.64
2019-05-03T16:13:44.675Z,45.60
2019-05-03T16:15:48.335Z,45.63
2019-05-03T16:17:52.137Z,45.48
2019-05-03T16:19:55.939Z,45.41
2019-05-03T16:21:59.758Z,45.32
2019-05-03T16:24:05.000Z,45.18
2019-05-03T16:26:08.701Z,45.05
2019-05-03T16:28:17.487Z,45.10
2019-05-03T16:30:29.038Z,45.12
2019-05-03T16:32:34.689Z,45.13
2019-05-03T16:34:38.317Z,45.39
2019-05-03T16:36:42.157Z,45.53
2019-05-03T16:38:45.950Z,45.67
2019-05-03T16:40:49.802Z,45.63
2019-05-03T16:42:53.528Z,45.54
2019-05-03T16:44:57.818Z,45.54
2019-05-03T16:47:01.558Z,45.41
2019-05-03T16:49:06.542Z,45.39
2019-05-03T16:51:11.458Z,45.46
2019-05-03T16:53:15.193Z,45.46
2019-05-03T16:55:19.001Z,45.55
2019-05-03T16:57:24.629Z,45.60
2019-05-03T16:59:28.274Z,45.49
2019-05-03T17:01:31.994Z,45.49
2019-05-03T17:03:45.435Z,45.49
2019-05-03T17:06:16.392Z,45.59
2019-05-03T17:08:48.101Z,45.57
2019-05-03T17:10:54.479Z,45.43
2019-05-03T17:12:57.971Z,45.47
2019-05-03T17:15:01.958Z,45.42
2019-05-03T17:17:07.281Z,45.16
2019-05-03T17:19:11.174Z,45.16
2019-05-03T17:21:16.333Z,45.22
2019-05-03T17:23:20.153Z,45.21
2019-05-03T17:25:24.505Z,45.33
2019-05-03T17:27:28.283Z,45.39
2019-05-03T17:29:32.136Z,45.48
2019-05-03T17:31:35.852Z,45.56
2019-05-03T17:33:50.628Z,45.60
2019-05-03T17:35:45.100Z,45.41
2019-05-03T17:37:48.908Z,45.30
2019-05-03T17:40:14.823Z,45.21
2019-05-03T17:42:25.463Z,45.19
2019-05-03T17:44:34.811Z,45.34
2019-05-03T17:46:38.534Z,45.46
2019-05-03T17:48:42.323Z,45.51
2019-05-03T17:50:46.209Z,45.54
2019-05-03T17:52:56.783Z,45.58
2019-05-03T17:55:16.100Z,45.71
2019-05-03T17:57:24.356Z,45.86
2019-05-03T17:59:34.947Z,45.92
2019-05-03T18:02:15.728Z,46.03
2019-05-03T18:04:44.157Z,46.13
2019-05-03T18:06:58.512Z,46.06
2019-05-03T18:09:21.270Z,46.14
2019-05-03T18:11:28.894Z,46.05
2019-05-03T18:13:32.801Z,46.06
2019-05-03T18:15:36.576Z,46.16
2019-05-03T18:17:40.390Z,46.22
2019-05-03T18:19:44.802Z,46.25
2019-05-03T18:21:48.819Z,46.43
2019-05-03T18:23:54.341Z,46.61
2019-05-03T18:25:58.209Z,46.73
2019-05-03T18:28:01.982Z,46.98
2019-05-03T18:30:07.118Z,47.19
2019-05-03T18:32:10.829Z,47.35
2019-05-03T18:34:19.923Z,47.51
2019-05-03T18:36:20.149Z,47.64
2019-05-03T18:38:25.222Z,47.67
2019-05-03T18:40:30.235Z,47.90
2019-05-03T18:42:39.986Z,48.41
2019-05-03T18:44:47.625Z,49.05
2019-05-03T18:46:55.083Z,49.67
2019-05-03T18:48:58.903Z,50.63
2019-05-03T18:51:02.638Z,51.39
2019-05-03T18:53:06.506Z,52.10
2019-05-03T18:55:10.650Z,52.54
2019-05-03T18:57:15.669Z,53.03
2019-05-03T18:59:22.528Z,53.22
2019-05-03T19:01:26.267Z,53.54
2019-05-03T19:03:30.132Z,53.54
2019-05-03T19:05:35.754Z,53.45
2019-05-03T19:07:54.609Z,53.46
2019-05-03T19:10:11.392Z,53.51
2019-05-03T19:12:32.428Z,53.77
2019-05-03T19:14:36.307Z,54.02
2019-05-03T19:16:57.755Z,54.50
2019-05-03T19:19:01.677Z,54.75
2019-05-03T19:21:05.487Z,54.89
2019-05-03T19:23:09.400Z,55.22
2019-05-03T19:25:14.876Z,55.56
2019-05-03T19:27:18.680Z,55.70
2019-05-03T19:29:22.417Z,55.69
2019-05-03T19:31:26.557Z,55.72
2019-05-03T19:33:30.368Z,55.82
2019-05-03T19:35:36.341Z,55.81
2019-05-03T19:37:39.701Z,55.99
2019-05-03T19:39:43.450Z,56.04
2019-05-03T19:41:47.246Z,56.23
2019-05-03T19:43:51.161Z,56.40
2019-05-03T19:45:54.964Z,56.42
2019-05-03T19:47:59.772Z,56.38
2019-05-03T19:50:05.056Z,56.32
2019-05-03T19:52:10.171Z,56.34
2019-05-03T19:54:14.693Z,56.28
2019-05-03T19:56:19.613Z,56.41
2019-05-03T19:58:24.884Z,56.60
2019-05-03T20:00:37.027Z,56.42
2019-05-03T20:03:05.231Z,56.47
2019-05-03T20:05:22.002Z,56.37
2019-05-03T20:07:50.635Z,56.44
2019-05-03T20:09:54.498Z,56.55
2019-05-03T20:11:58.591Z,56.63
2019-05-03T20:14:04.724Z,56.83
2019-05-03T20:16:08.693Z,56.81
2019-05-03T20:18:14.918Z,57.05
2019-05-03T20:20:20.422Z,56.91
2019-05-03T20:22:24.881Z,56.85
2019-05-03T20:24:30.852Z,57.08
2019-05-03T20:26:34.908Z,57.07
2019-05-03T20:28:38.807Z,56.95
2019-05-03T20:30:45.200Z,56.96
2019-05-03T20:32:49.321Z,56.88
2019-05-03T20:34:55.006Z,56.87
2019-05-03T20:36:58.595Z,56.70
2019-05-03T20:39:05.445Z,57.04
2019-05-03T20:41:09.258Z,57.25
2019-05-03T20:43:41.021Z,57.56
2019-05-03T20:45:54.693Z,57.67
2019-05-03T20:47:59.755Z,57.67
2019-05-03T20:50:17.162Z,57.52
2019-05-03T20:52:20.897Z,57.33
2019-05-03T20:54:24.619Z,57.39
2019-05-03T20:56:28.431Z,57.37
2019-05-03T20:58:32.249Z,57.57
2019-05-03T21:00:36.097Z,57.87
2019-05-03T21:02:50.679Z,57.89
2019-05-03T21:04:45.415Z,57.73
2019-05-03T21:06:49.195Z,57.54
2019-05-03T21:08:54.208Z,57.54
2019-05-03T21:10:58.505Z,57.66
2019-05-03T21:13:02.236Z,57.84
2019-05-03T21:15:09.399Z,57.90
2019-05-03T21:17:32.236Z,58.09
2019-05-03T21:19:47.804Z,58.15
2019-05-03T21:22:19.458Z,58.28
2019-05-03T21:24:29.238Z,58.53
2019-05-03T21:26:34.583Z,58.66
2019-05-03T21:28:38.657Z,58.88
2019-05-03T21:30:42.480Z,58.94
2019-05-03T21:32:46.289Z,59.04
2019-05-03T21:34:51.174Z,59.13
2019-05-03T21:36:54.878Z,59.37
2019-05-03T21:38:58.610Z,59.81
2019-05-03T21:41:02.340Z,60.05
2019-05-03T21:43:06.127Z,60.32
2019-05-03T21:45:11.187Z,60.34
2019-05-03T21:47:45.941Z,60.25
2019-05-03T21:49:49.802Z,60.29
2019-05-03T21:51:53.736Z,60.10
2019-05-03T21:53:57.494Z,60.02
2019-05-03T21:56:01.308Z,60.16
2019-05-03T21:58:05.153Z,60.20
2019-05-03T22:00:09.529Z,60.24
2019-05-03T22:02:15.285Z,60.11
2019-05-03T22:04:18.768Z,60.06
2019-05-03T22:06:24.514Z,60.25
2019-05-03T22:08:28.003Z,60.21
2019-05-03T22:10:31.804Z,60.23
2019-05-03T22:12:35.518Z,60.18
2019-05-03T22:14:45.463Z,60.08
2019-05-03T22:17:06.825Z,59.88
2019-05-03T22:19:10.577Z,59.69
2019-05-03T22:21:36.699Z,59.47
2019-05-03T22:23:49.986Z,59.32
2019-05-03T22:25:54.323Z,59.26
2019-05-03T22:27:59.177Z,59.19
2019-05-03T22:30:03.031Z,59.13
2019-05-03T22:32:07.864Z,59.11
2019-05-03T22:34:12.608Z,59.06
2019-05-03T22:36:16.445Z,59.11
2019-05-03T22:38:20.240Z,59.11
2019-05-03T22:40:25.115Z,59.16
2019-05-03T22:42:28.974Z,59.11
2019-05-03T22:44:32.747Z,59.19
2019-05-03T22:46:36.720Z,59.29
2019-05-03T22:48:40.471Z,59.41
2019-05-03T22:50:44.902Z,59.42
2019-05-03T22:52:48.685Z,59.42
2019-05-03T22:54:52.495Z,59.51
2019-05-03T22:56:56.440Z,59.49
2019-05-03T22:59:00.193Z,59.52
2019-05-03T23:01:04.158Z,59.55
2019-05-03T23:03:07.924Z,59.56
2019-05-03T23:05:12.999Z,59.58
2019-05-03T23:07:16.750Z,59.71
2019-05-03T23:09:20.640Z,59.83
2019-05-03T23:11:24.610Z,59.76
2019-05-03T23:13:28.463Z,59.74
2019-05-03T23:15:32.258Z,59.84
2019-05-03T23:17:36.078Z,59.91
2019-05-03T23:19:42.248Z,60.01
2019-05-03T23:22:05.214Z,59.95
2019-05-03T23:24:09.006Z,59.90
2019-05-03T23:26:14.734Z,59.87
2019-05-03T23:28:20.303Z,59.96
2019-05-03T23:30:24.793Z,60.01
2019-05-03T23:32:28.711Z,60.10
2019-05-03T23:34:32.513Z,60.06
2019-05-03T23:36:37.319Z,60.01
2019-05-03T23:38:45.039Z,60.07
2019-05-03T23:40:48.609Z,60.16
2019-05-03T23:42:54.210Z,60.31
2019-05-03T23:44:57.956Z,60.47
2019-05-03T23:47:20.790Z,60.51
2019-05-03T23:49:25.089Z,60.59
2019-05-03T23:51:46.553Z,60.92
2019-05-03T23:53:50.344Z,61.14
2019-05-03T23:55:59.401Z,61.29
2019-05-03T23:58:04.823Z,61.40
